CYBW/YBW METAR and TAF weather

Enter ICAO airport designator
Station Type Date Time Source
CYBW METAR 2019/06/25 00:00 UTC NOAA

CYBW 250000Z AUTO VRB06KT 9SM SCT055 BKN072 BKN085 17/05 A2980 RMK SLP097 DENSITY ALT 5100FT


Station Type Date Time Source
CYBW Decoded METAR 2019/06/25 00:00 UTC NOAA

Calgary / Springbank, Canada (CYBW) 51-06N 114-22W
Jun 24, 2019 - 08:00 PM EDT / 2019.06.25 0000 UTC
Wind: Variable at 7 MPH (6 KT):0
Visibility: 9 mile(s):0
Sky conditions: mostly cloudy
Temperature: 62 F (17 C)
Dew Point: 41 F (5 C)
Relative Humidity: 45%
Pressure (altimeter): 29.8 in. Hg (1009 hPa)
ob: CYBW 250000Z AUTO VRB06KT 9SM SCT055 BKN072 BKN085 17/05 A2980 RMK SLP097 DENSITY ALT 5100FT
cycle: 0

Station Type Date Time Source
CYBW TAF 2019/06/24 20:54 UTC NOAA

TAF
AMD TAF
AMD CYBW 242052Z 2420/2504 36012KT P6SM BKN050
TEMPO 2421/2423 VRB15G30KT 4SM TSRA BKN040CB
FM242300 22008KT P6SM BKN050
TEMPO 2423/2502 P6SM -SHRA VCTS SCT040CB BKN050
FM250200 34006KT P6SM VCSH BKN040
RMK FCST BASED ON AUTO OBS. NXT FCST BY 250000Z

Example: see airport list